sensor_id;sensor_type;location;lat;lon;timestamp;temperature;humidity
54930;DHT22;40833;53.238;6.576;2024-01-30T00:01:52;6.20;99.90
54930;DHT22;40833;53.238;6.576;2024-01-30T00:04:17;5.00;99.90
54930;DHT22;40833;53.238;6.576;2024-01-30T00:06:44;5.00;99.90
54930;DHT22;40833;53.238;6.576;2024-01-30T00:09:09;5.00;99.90
54930;DHT22;40833;53.238;6.576;2024-01-30T00:11:36;5.60;99.90
54930;DHT22;40833;53.238;6.576;2024-01-30T00:14:04;5.00;99.90
54930;DHT22;40833;53.238;6.576;2024-01-30T00:16:29;5.40;99.90
54930;DHT22;40833;53.238;6.576;2024-01-30T00:18:55;6.20;99.90
54930;DHT22;40833;53.238;6.576;2024-01-30T00:21:21;4.90;99.90
54930;DHT22;40833;53.238;6.576;2024-01-30T00:23:47;7.20;99.90
54930;DHT22;40833;53.238;6.576;2024-01-30T00:26:13;5.40;99.90
54930;DHT22;40833;53.238;6.576;2024-01-30T00:28:43;6.80;99.90
54930;DHT22;40833;53.238;6.576;2024-01-30T00:31:09;4.70;99.90
54930;DHT22;40833;53.238;6.576;2024-01-30T00:33:41;4.70;99.90
54930;DHT22;40833;53.238;6.576;2024-01-30T00:36:08;5.20;99.90
54930;DHT22;40833;53.238;6.576;2024-01-30T00:38:34;4.80;99.90
54930;DHT22;40833;53.238;6.576;2024-01-30T00:41:00;4.70;99.90
54930;DHT22;40833;53.238;6.576;2024-01-30T00:43:27;4.80;99.90
54930;DHT22;40833;53.238;6.576;2024-01-30T00:45:53;5.10;99.90
54930;DHT22;40833;53.238;6.576;2024-01-30T00:48:19;4.80;99.90
54930;DHT22;40833;53.238;6.576;2024-01-30T00:50:45;4.70;99.90
54930;DHT22;40833;53.238;6.576;2024-01-30T00:53:11;4.90;99.90
54930;DHT22;40833;53.238;6.576;2024-01-30T00:55:36;5.20;99.90
54930;DHT22;40833;53.238;6.576;2024-01-30T00:58:02;4.60;99.90
54930;DHT22;40833;53.238;6.576;2024-01-30T01:00:28;4.60;99.90
54930;DHT22;40833;53.238;6.576;2024-01-30T01:03:00;4.60;99.90
54930;DHT22;40833;53.238;6.576;2024-01-30T01:05:26;5.60;99.90
54930;DHT22;40833;53.238;6.576;2024-01-30T01:07:51;5.50;99.90
54930;DHT22;40833;53.238;6.576;2024-01-30T01:10:17;5.00;99.90
54930;DHT22;40833;53.238;6.576;2024-01-30T01:12:44;4.50;99.90
54930;DHT22;40833;53.238;6.576;2024-01-30T01:15:10;4.50;99.90
54930;DHT22;40833;53.238;6.576;2024-01-30T01:17:36;4.60;99.90
54930;DHT22;40833;53.238;6.576;2024-01-30T01:20:03;4.60;99.90
54930;DHT22;40833;53.238;6.576;2024-01-30T01:22:31;4.70;99.90
54930;DHT22;40833;53.238;6.576;2024-01-30T01:24:56;4.70;99.90
54930;DHT22;40833;53.238;6.576;2024-01-30T01:27:22;5.60;99.90
54930;DHT22;40833;53.238;6.576;2024-01-30T01:29:47;4.80;99.90
54930;DHT22;40833;53.238;6.576;2024-01-30T01:34:39;5.00;99.90
54930;DHT22;40833;53.238;6.576;2024-01-30T01:37:05;5.00;99.90
54930;DHT22;40833;53.238;6.576;2024-01-30T01:39:31;5.10;99.90
54930;DHT22;40833;53.238;6.576;2024-01-30T01:41:56;5.40;99.90
54930;DHT22;40833;53.238;6.576;2024-01-30T01:44:22;6.00;99.90
54930;DHT22;40833;53.238;6.576;2024-01-30T01:46:48;6.20;99.90
54930;DHT22;40833;53.238;6.576;2024-01-30T01:49:14;5.20;99.90
54930;DHT22;40833;53.238;6.576;2024-01-30T01:51:41;5.30;99.90
54930;DHT22;40833;53.238;6.576;2024-01-30T01:54:08;5.30;99.90
54930;DHT22;40833;53.238;6.576;2024-01-30T01:56:34;5.40;99.90
54930;DHT22;40833;53.238;6.576;2024-01-30T01:59:05;5.50;99.90
54930;DHT22;40833;53.238;6.576;2024-01-30T02:01:33;5.40;99.90
54930;DHT22;40833;53.238;6.576;2024-01-30T02:03:59;5.80;99.90
54930;DHT22;40833;53.238;6.576;2024-01-30T02:06:26;5.40;99.90
54930;DHT22;40833;53.238;6.576;2024-01-30T02:08:52;5.70;99.90
54930;DHT22;40833;53.238;6.576;2024-01-30T02:11:18;5.40;99.90
54930;DHT22;40833;53.238;6.576;2024-01-30T02:13:45;5.50;99.90
54930;DHT22;40833;53.238;6.576;2024-01-30T02:16:11;5.50;99.90
54930;DHT22;40833;53.238;6.576;2024-01-30T02:18:36;5.50;99.90
54930;DHT22;40833;53.238;6.576;2024-01-30T02:21:07;8.60;99.90
54930;DHT22;40833;53.238;6.576;2024-01-30T02:23:34;5.50;99.90
54930;DHT22;40833;53.238;6.576;2024-01-30T02:26:00;5.60;99.90
54930;DHT22;40833;53.238;6.576;2024-01-30T02:28:25;5.60;99.90
54930;DHT22;40833;53.238;6.576;2024-01-30T02:30:51;5.70;99.90
54930;DHT22;40833;53.238;6.576;2024-01-30T02:33:17;5.60;99.90
54930;DHT22;40833;53.238;6.576;2024-01-30T02:35:42;5.60;99.90
54930;DHT22;40833;53.238;6.576;2024-01-30T02:38:08;6.30;99.90
54930;DHT22;40833;53.238;6.576;2024-01-30T02:40:34;7.20;99.90
54930;DHT22;40833;53.238;6.576;2024-01-30T02:43:01;5.60;99.90
54930;DHT22;40833;53.238;6.576;2024-01-30T02:45:26;6.40;99.90
54930;DHT22;40833;53.238;6.576;2024-01-30T02:47:52;5.70;99.90
54930;DHT22;40833;53.238;6.576;2024-01-30T02:50:18;6.20;99.90
54930;DHT22;40833;53.238;6.576;2024-01-30T02:52:44;5.80;99.90
54930;DHT22;40833;53.238;6.576;2024-01-30T02:55:10;5.70;99.90
54930;DHT22;40833;53.238;6.576;2024-01-30T02:57:36;5.80;99.90
54930;DHT22;40833;53.238;6.576;2024-01-30T03:00:02;5.80;99.90
54930;DHT22;40833;53.238;6.576;2024-01-30T03:02:29;5.70;99.90
54930;DHT22;40833;53.238;6.576;2024-01-30T03:04:55;5.80;99.90
54930;DHT22;40833;53.238;6.576;2024-01-30T03:07:20;6.20;99.90
54930;DHT22;40833;53.238;6.576;2024-01-30T03:09:46;5.80;99.90
54930;DHT22;40833;53.238;6.576;2024-01-30T03:12:12;5.80;99.90
54930;DHT22;40833;53.238;6.576;2024-01-30T03:14:37;6.20;99.90
54930;DHT22;40833;53.238;6.576;2024-01-30T03:17:03;5.80;99.90
54930;DHT22;40833;53.238;6.576;2024-01-30T03:19:29;5.80;99.90
54930;DHT22;40833;53.238;6.576;2024-01-30T03:21:54;5.80;99.90
54930;DHT22;40833;53.238;6.576;2024-01-30T03:24:20;6.00;99.90
54930;DHT22;40833;53.238;6.576;2024-01-30T03:26:46;5.70;99.90
54930;DHT22;40833;53.238;6.576;2024-01-30T03:29:11;5.70;99.90
54930;DHT22;40833;53.238;6.576;2024-01-30T03:31:38;6.10;99.90
54930;DHT22;40833;53.238;6.576;2024-01-30T03:34:04;5.70;99.90
54930;DHT22;40833;53.238;6.576;2024-01-30T03:36:29;5.70;99.90
54930;DHT22;40833;53.238;6.576;2024-01-30T03:38:58;5.70;99.90
54930;DHT22;40833;53.238;6.576;2024-01-30T03:41:24;5.80;99.90
54930;DHT22;40833;53.238;6.576;2024-01-30T03:43:49;6.20;99.90
54930;DHT22;40833;53.238;6.576;2024-01-30T03:46:15;6.10;99.90
54930;DHT22;40833;53.238;6.576;2024-01-30T03:48:41;6.30;99.90
54930;DHT22;40833;53.238;6.576;2024-01-30T03:51:07;6.40;99.90
54930;DHT22;40833;53.238;6.576;2024-01-30T03:53:32;7.70;99.90
54930;DHT22;40833;53.238;6.576;2024-01-30T03:55:58;6.10;99.90
54930;DHT22;40833;53.238;6.576;2024-01-30T03:58:24;5.90;99.90
54930;DHT22;40833;53.238;6.576;2024-01-30T04:00:49;5.90;99.90
54930;DHT22;40833;53.238;6.576;2024-01-30T04:03:15;5.90;99.90
54930;DHT22;40833;53.238;6.576;2024-01-30T04:05:41;5.90;99.90
54930;DHT22;40833;53.238;6.576;2024-01-30T04:08:07;5.90;99.90
54930;DHT22;40833;53.238;6.576;2024-01-30T04:10:33;5.90;99.90
54930;DHT22;40833;53.238;6.576;2024-01-30T04:12:59;5.90;99.90
54930;DHT22;40833;53.238;6.576;2024-01-30T04:15:25;5.90;99.90
54930;DHT22;40833;53.238;6.576;2024-01-30T04:17:51;6.00;99.90
54930;DHT22;40833;53.238;6.576;2024-01-30T04:20:17;6.00;99.90
54930;DHT22;40833;53.238;6.576;2024-01-30T04:22:46;6.10;99.90
54930;DHT22;40833;53.238;6.576;2024-01-30T04:25:13;6.10;99.90
54930;DHT22;40833;53.238;6.576;2024-01-30T04:27:38;6.20;99.90
54930;DHT22;40833;53.238;6.576;2024-01-30T04:30:05;6.40;99.90
54930;DHT22;40833;53.238;6.576;2024-01-30T04:32:32;6.30;99.90
54930;DHT22;40833;53.238;6.576;2024-01-30T04:34:58;6.30;99.90
54930;DHT22;40833;53.238;6.576;2024-01-30T04:37:24;6.40;99.90
54930;DHT22;40833;53.238;6.576;2024-01-30T04:39:50;6.40;99.90
54930;DHT22;40833;53.238;6.576;2024-01-30T04:42:16;6.40;99.90
54930;DHT22;40833;53.238;6.576;2024-01-30T04:44:42;6.50;99.90
54930;DHT22;40833;53.238;6.576;2024-01-30T04:47:08;7.40;99.90
54930;DHT22;40833;53.238;6.576;2024-01-30T04:49:35;6.50;99.90
54930;DHT22;40833;53.238;6.576;2024-01-30T04:52:01;7.80;99.90
54930;DHT22;40833;53.238;6.576;2024-01-30T04:54:26;6.60;99.90
54930;DHT22;40833;53.238;6.576;2024-01-30T04:56:52;6.60;99.90
54930;DHT22;40833;53.238;6.576;2024-01-30T04:59:18;6.60;99.90
54930;DHT22;40833;53.238;6.576;2024-01-30T05:01:44;6.70;99.90
54930;DHT22;40833;53.238;6.576;2024-01-30T05:04:10;7.00;99.90
54930;DHT22;40833;53.238;6.576;2024-01-30T05:06:36;6.70;99.90
54930;DHT22;40833;53.238;6.576;2024-01-30T05:09:02;7.10;99.90
54930;DHT22;40833;53.238;6.576;2024-01-30T05:11:30;6.80;99.90
54930;DHT22;40833;53.238;6.576;2024-01-30T05:13:55;6.90;99.90
54930;DHT22;40833;53.238;6.576;2024-01-30T05:16:21;6.80;99.90
54930;DHT22;40833;53.238;6.576;2024-01-30T05:18:47;7.00;99.90
54930;DHT22;40833;53.238;6.576;2024-01-30T05:21:12;6.90;99.90
54930;DHT22;40833;53.238;6.576;2024-01-30T05:23:38;6.90;99.90
54930;DHT22;40833;53.238;6.576;2024-01-30T05:26:04;8.00;99.90
54930;DHT22;40833;53.238;6.576;2024-01-30T05:32:10;6.90;99.90
54930;DHT22;40833;53.238;6.576;2024-01-30T05:34:36;7.00;99.90
54930;DHT22;40833;53.238;6.576;2024-01-30T05:37:02;7.00;99.90
54930;DHT22;40833;53.238;6.576;2024-01-30T05:39:28;7.00;99.90
54930;DHT22;40833;53.238;6.576;2024-01-30T05:41:53;7.00;99.90
54930;DHT22;40833;53.238;6.576;2024-01-30T05:44:19;7.20;99.90
54930;DHT22;40833;53.238;6.576;2024-01-30T05:49:11;8.80;99.90
54930;DHT22;40833;53.238;6.576;2024-01-30T05:51:37;7.00;99.90
54930;DHT22;40833;53.238;6.576;2024-01-30T05:54:02;7.00;99.90
54930;DHT22;40833;53.238;6.576;2024-01-30T05:56:29;7.00;99.90
54930;DHT22;40833;53.238;6.576;2024-01-30T05:58:55;7.40;99.90
54930;DHT22;40833;53.238;6.576;2024-01-30T06:01:20;7.40;99.90
54930;DHT22;40833;53.238;6.576;2024-01-30T06:03:46;7.00;99.90
54930;DHT22;40833;53.238;6.576;2024-01-30T06:06:12;7.10;99.90
54930;DHT22;40833;53.238;6.576;2024-01-30T06:08:37;7.10;99.90
54930;DHT22;40833;53.238;6.576;2024-01-30T06:11:03;7.70;99.90
54930;DHT22;40833;53.238;6.576;2024-01-30T06:13:29;7.10;99.90
54930;DHT22;40833;53.238;6.576;2024-01-30T06:15:57;7.10;99.90
54930;DHT22;40833;53.238;6.576;2024-01-30T06:18:23;7.20;99.90
54930;DHT22;40833;53.238;6.576;2024-01-30T06:20:48;7.10;99.90
54930;DHT22;40833;53.238;6.576;2024-01-30T06:23:14;7.00;99.90
54930;DHT22;40833;53.238;6.576;2024-01-30T06:25:40;7.00;99.90
54930;DHT22;40833;53.238;6.576;2024-01-30T06:28:06;7.20;99.90
54930;DHT22;40833;53.238;6.576;2024-01-30T06:30:31;7.10;99.90
54930;DHT22;40833;53.238;6.576;2024-01-30T06:32:57;7.10;99.90
54930;DHT22;40833;53.238;6.576;2024-01-30T06:35:23;7.10;99.90
54930;DHT22;40833;53.238;6.576;2024-01-30T06:37:48;6.90;99.90
54930;DHT22;40833;53.238;6.576;2024-01-30T06:40:14;7.50;99.90
54930;DHT22;40833;53.238;6.576;2024-01-30T06:42:40;7.10;99.90
54930;DHT22;40833;53.238;6.576;2024-01-30T06:45:06;7.20;99.90
54930;DHT22;40833;53.238;6.576;2024-01-30T06:47:32;7.10;99.90
54930;DHT22;40833;53.238;6.576;2024-01-30T06:49:57;7.20;99.90
54930;DHT22;40833;53.238;6.576;2024-01-30T06:52:23;7.20;99.90
54930;DHT22;40833;53.238;6.576;2024-01-30T06:54:50;7.20;99.90
54930;DHT22;40833;53.238;6.576;2024-01-30T06:57:15;7.20;99.90
54930;DHT22;40833;53.238;6.576;2024-01-30T06:59:41;10.00;99.90
54930;DHT22;40833;53.238;6.576;2024-01-30T07:02:09;7.50;99.90
54930;DHT22;40833;53.238;6.576;2024-01-30T07:04:35;7.50;99.90
54930;DHT22;40833;53.238;6.576;2024-01-30T07:07:03;7.30;99.90
54930;DHT22;40833;53.238;6.576;2024-01-30T07:09:30;7.30;99.90
54930;DHT22;40833;53.238;6.576;2024-01-30T07:11:56;7.30;99.90
54930;DHT22;40833;53.238;6.576;2024-01-30T07:14:24;7.60;99.90
54930;DHT22;40833;53.238;6.576;2024-01-30T07:16:49;7.80;99.90
54930;DHT22;40833;53.238;6.576;2024-01-30T07:19:16;7.30;99.90
54930;DHT22;40833;53.238;6.576;2024-01-30T07:21:42;7.50;99.90
54930;DHT22;40833;53.238;6.576;2024-01-30T07:24:07;7.40;99.90
54930;DHT22;40833;53.238;6.576;2024-01-30T07:26:33;7.40;99.90
54930;DHT22;40833;53.238;6.576;2024-01-30T07:29:01;7.50;99.90
54930;DHT22;40833;53.238;6.576;2024-01-30T07:31:26;7.40;99.90
54930;DHT22;40833;53.238;6.576;2024-01-30T07:33:52;9.50;99.90
54930;DHT22;40833;53.238;6.576;2024-01-30T07:36:18;7.40;99.90
54930;DHT22;40833;53.238;6.576;2024-01-30T07:41:10;7.40;99.90
54930;DHT22;40833;53.238;6.576;2024-01-30T07:43:35;8.00;99.90
54930;DHT22;40833;53.238;6.576;2024-01-30T07:46:01;7.60;99.90
54930;DHT22;40833;53.238;6.576;2024-01-30T07:48:28;7.50;99.90
54930;DHT22;40833;53.238;6.576;2024-01-30T07:50:54;7.80;99.90
54930;DHT22;40833;53.238;6.576;2024-01-30T07:53:19;7.50;99.90
54930;DHT22;40833;53.238;6.576;2024-01-30T07:55:48;7.50;99.90
54930;DHT22;40833;53.238;6.576;2024-01-30T07:58:15;7.50;99.90
54930;DHT22;40833;53.238;6.576;2024-01-30T08:00:40;8.90;99.90
54930;DHT22;40833;53.238;6.576;2024-01-30T08:03:07;8.10;99.90
54930;DHT22;40833;53.238;6.576;2024-01-30T08:05:32;7.50;99.90
54930;DHT22;40833;53.238;6.576;2024-01-30T08:07:58;7.60;99.90
54930;DHT22;40833;53.238;6.576;2024-01-30T08:10:23;7.60;99.90
54930;DHT22;40833;53.238;6.576;2024-01-30T08:12:49;7.60;99.90
54930;DHT22;40833;53.238;6.576;2024-01-30T08:15:15;8.20;99.90
54930;DHT22;40833;53.238;6.576;2024-01-30T08:17:40;7.70;99.90
54930;DHT22;40833;53.238;6.576;2024-01-30T08:20:07;7.60;99.90
54930;DHT22;40833;53.238;6.576;2024-01-30T08:22:33;7.70;99.90
54930;DHT22;40833;53.238;6.576;2024-01-30T08:24:59;7.70;99.90
54930;DHT22;40833;53.238;6.576;2024-01-30T08:27:25;8.00;99.90
54930;DHT22;40833;53.238;6.576;2024-01-30T08:29:50;7.90;99.90
54930;DHT22;40833;53.238;6.576;2024-01-30T08:32:16;8.00;99.90
54930;DHT22;40833;53.238;6.576;2024-01-30T08:34:42;7.60;99.90
54930;DHT22;40833;53.238;6.576;2024-01-30T08:37:07;8.30;99.90
54930;DHT22;40833;53.238;6.576;2024-01-30T08:39:33;8.40;99.90
54930;DHT22;40833;53.238;6.576;2024-01-30T08:41:59;7.80;99.90
54930;DHT22;40833;53.238;6.576;2024-01-30T08:44:25;7.90;99.90
54930;DHT22;40833;53.238;6.576;2024-01-30T08:46:50;8.30;99.90
54930;DHT22;40833;53.238;6.576;2024-01-30T08:49:16;8.00;99.90
54930;DHT22;40833;53.238;6.576;2024-01-30T08:51:42;10.60;99.90
54930;DHT22;40833;53.238;6.576;2024-01-30T08:54:08;8.30;99.90
54930;DHT22;40833;53.238;6.576;2024-01-30T08:56:33;8.00;99.90
54930;DHT22;40833;53.238;6.576;2024-01-30T08:58:59;8.00;99.90
54930;DHT22;40833;53.238;6.576;2024-01-30T09:01:25;8.00;99.90
54930;DHT22;40833;53.238;6.576;2024-01-30T09:03:52;8.20;99.90
54930;DHT22;40833;53.238;6.576;2024-01-30T09:06:17;8.10;99.90
54930;DHT22;40833;53.238;6.576;2024-01-30T09:11:13;8.20;99.90
54930;DHT22;40833;53.238;6.576;2024-01-30T09:13:39;8.20;99.90
54930;DHT22;40833;53.238;6.576;2024-01-30T09:16:05;8.20;99.90
54930;DHT22;40833;53.238;6.576;2024-01-30T09:18:31;8.30;99.90
54930;DHT22;40833;53.238;6.576;2024-01-30T09:20:57;8.30;99.90
54930;DHT22;40833;53.238;6.576;2024-01-30T09:23:23;8.40;99.90
54930;DHT22;40833;53.238;6.576;2024-01-30T09:25:49;8.40;99.90
54930;DHT22;40833;53.238;6.576;2024-01-30T09:28:14;8.50;99.90
54930;DHT22;40833;53.238;6.576;2024-01-30T09:30:40;8.80;99.90
54930;DHT22;40833;53.238;6.576;2024-01-30T09:33:06;8.60;99.90
54930;DHT22;40833;53.238;6.576;2024-01-30T09:35:32;9.00;99.90
54930;DHT22;40833;53.238;6.576;2024-01-30T09:37:59;8.80;99.90
54930;DHT22;40833;53.238;6.576;2024-01-30T09:40:25;8.90;99.90
54930;DHT22;40833;53.238;6.576;2024-01-30T09:42:51;9.40;99.90
54930;DHT22;40833;53.238;6.576;2024-01-30T09:45:23;9.10;99.90
54930;DHT22;40833;53.238;6.576;2024-01-30T09:47:49;10.00;99.90
54930;DHT22;40833;53.238;6.576;2024-01-30T09:50:15;9.20;99.90
54930;DHT22;40833;53.238;6.576;2024-01-30T09:52:43;9.20;99.90
54930;DHT22;40833;53.238;6.576;2024-01-30T09:55:09;9.30;99.90
54930;DHT22;40833;53.238;6.576;2024-01-30T09:57:35;9.30;99.90
54930;DHT22;40833;53.238;6.576;2024-01-30T10:00:03;9.70;99.90
54930;DHT22;40833;53.238;6.576;2024-01-30T10:02:31;9.40;99.90
54930;DHT22;40833;53.238;6.576;2024-01-30T10:04:57;9.40;99.90
54930;DHT22;40833;53.238;6.576;2024-01-30T10:07:22;9.40;99.90
54930;DHT22;40833;53.238;6.576;2024-01-30T10:12:15;9.50;99.90
54930;DHT22;40833;53.238;6.576;2024-01-30T10:14:42;9.60;99.90
54930;DHT22;40833;53.238;6.576;2024-01-30T10:17:08;9.60;99.90
54930;DHT22;40833;53.238;6.576;2024-01-30T10:19:36;9.60;99.90
54930;DHT22;40833;53.238;6.576;2024-01-30T10:22:02;9.70;99.90
54930;DHT22;40833;53.238;6.576;2024-01-30T10:24:28;9.80;99.90
54930;DHT22;40833;53.238;6.576;2024-01-30T10:26:55;9.90;99.90
54930;DHT22;40833;53.238;6.576;2024-01-30T10:29:21;9.90;99.90
54930;DHT22;40833;53.238;6.576;2024-01-30T10:32:00;10.00;99.90
54930;DHT22;40833;53.238;6.576;2024-01-30T10:34:26;10.00;99.90
54930;DHT22;40833;53.238;6.576;2024-01-30T10:37:05;10.00;99.90
54930;DHT22;40833;53.238;6.576;2024-01-30T10:39:37;10.00;99.90
54930;DHT22;40833;53.238;6.576;2024-01-30T10:42:05;10.00;99.90
54930;DHT22;40833;53.238;6.576;2024-01-30T10:44:37;9.90;99.90
54930;DHT22;40833;53.238;6.576;2024-01-30T10:47:07;9.90;99.90
54930;DHT22;40833;53.238;6.576;2024-01-30T10:49:37;10.00;99.90
54930;DHT22;40833;53.238;6.576;2024-01-30T10:52:04;9.90;99.90
54930;DHT22;40833;53.238;6.576;2024-01-30T10:54:31;10.00;99.90
54930;DHT22;40833;53.238;6.576;2024-01-30T10:57:01;10.00;99.90
54930;DHT22;40833;53.238;6.576;2024-01-30T10:59:30;10.00;99.90
54930;DHT22;40833;53.238;6.576;2024-01-30T11:01:58;10.00;99.90
54930;DHT22;40833;53.238;6.576;2024-01-30T11:04:24;10.00;99.90
54930;DHT22;40833;53.238;6.576;2024-01-30T11:06:51;10.10;99.90
54930;DHT22;40833;53.238;6.576;2024-01-30T11:09:17;10.10;99.90
54930;DHT22;40833;53.238;6.576;2024-01-30T11:11:57;10.10;99.90
54930;DHT22;40833;53.238;6.576;2024-01-30T11:14:34;10.10;99.90
54930;DHT22;40833;53.238;6.576;2024-01-30T11:17:03;10.10;99.90
54930;DHT22;40833;53.238;6.576;2024-01-30T11:19:31;10.10;99.90
54930;DHT22;40833;53.238;6.576;2024-01-30T11:21:57;10.10;99.90
54930;DHT22;40833;53.238;6.576;2024-01-30T11:24:24;10.10;99.90
54930;DHT22;40833;53.238;6.576;2024-01-30T11:26:55;10.40;99.90
54930;DHT22;40833;53.238;6.576;2024-01-30T11:29:24;10.50;99.90
54930;DHT22;40833;53.238;6.576;2024-01-30T11:31:54;10.20;99.90
54930;DHT22;40833;53.238;6.576;2024-01-30T11:34:20;10.40;99.90
54930;DHT22;40833;53.238;6.576;2024-01-30T11:36:52;10.30;99.90
54930;DHT22;40833;53.238;6.576;2024-01-30T11:39:20;10.20;99.90
54930;DHT22;40833;53.238;6.576;2024-01-30T11:41:50;10.10;99.90
54930;DHT22;40833;53.238;6.576;2024-01-30T11:44:16;10.10;99.90
54930;DHT22;40833;53.238;6.576;2024-01-30T11:46:41;10.10;99.90
54930;DHT22;40833;53.238;6.576;2024-01-30T11:49:07;10.10;99.90
54930;DHT22;40833;53.238;6.576;2024-01-30T11:51:33;10.50;99.90
54930;DHT22;40833;53.238;6.576;2024-01-30T11:53:59;10.10;99.90
54930;DHT22;40833;53.238;6.576;2024-01-30T11:56:24;10.30;99.90
54930;DHT22;40833;53.238;6.576;2024-01-30T11:58:52;10.00;99.90
54930;DHT22;40833;53.238;6.576;2024-01-30T12:01:18;10.10;99.90
54930;DHT22;40833;53.238;6.576;2024-01-30T12:03:49;10.00;99.90
54930;DHT22;40833;53.238;6.576;2024-01-30T12:06:15;10.00;99.90
54930;DHT22;40833;53.238;6.576;2024-01-30T12:08:41;10.00;99.90
54930;DHT22;40833;53.238;6.576;2024-01-30T12:11:07;10.20;99.90
54930;DHT22;40833;53.238;6.576;2024-01-30T12:13:34;9.90;99.90
54930;DHT22;40833;53.238;6.576;2024-01-30T12:16:00;9.90;99.90
54930;DHT22;40833;53.238;6.576;2024-01-30T12:18:26;9.90;99.90
54930;DHT22;40833;53.238;6.576;2024-01-30T12:20:59;9.90;99.90
54930;DHT22;40833;53.238;6.576;2024-01-30T12:23:26;9.80;99.90
54930;DHT22;40833;53.238;6.576;2024-01-30T12:25:52;9.80;99.90
54930;DHT22;40833;53.238;6.576;2024-01-30T12:28:19;9.80;99.90
54930;DHT22;40833;53.238;6.576;2024-01-30T12:30:44;9.80;99.90
54930;DHT22;40833;53.238;6.576;2024-01-30T12:33:16;9.80;99.90
54930;DHT22;40833;53.238;6.576;2024-01-30T12:35:46;9.70;99.90
54930;DHT22;40833;53.238;6.576;2024-01-30T12:38:12;9.60;99.90
54930;DHT22;40833;53.238;6.576;2024-01-30T12:40:38;9.70;99.90
54930;DHT22;40833;53.238;6.576;2024-01-30T12:43:04;9.80;99.90
54930;DHT22;40833;53.238;6.576;2024-01-30T12:45:30;9.80;99.90
54930;DHT22;40833;53.238;6.576;2024-01-30T12:47:55;9.70;99.90
54930;DHT22;40833;53.238;6.576;2024-01-30T12:50:21;9.70;99.90
54930;DHT22;40833;53.238;6.576;2024-01-30T12:52:47;9.70;99.90
54930;DHT22;40833;53.238;6.576;2024-01-30T12:55:13;9.70;99.90
54930;DHT22;40833;53.238;6.576;2024-01-30T12:57:39;9.70;99.90
54930;DHT22;40833;53.238;6.576;2024-01-30T13:00:05;9.80;99.90
54930;DHT22;40833;53.238;6.576;2024-01-30T13:02:34;9.80;99.90
54930;DHT22;40833;53.238;6.576;2024-01-30T13:05:03;9.90;99.90
54930;DHT22;40833;53.238;6.576;2024-01-30T13:07:29;9.90;99.90
54930;DHT22;40833;53.238;6.576;2024-01-30T13:09:54;9.90;99.90
54930;DHT22;40833;53.238;6.576;2024-01-30T13:12:20;10.00;99.90
54930;DHT22;40833;53.238;6.576;2024-01-30T13:14:46;10.00;99.90
54930;DHT22;40833;53.238;6.576;2024-01-30T13:17:12;9.90;99.90
54930;DHT22;40833;53.238;6.576;2024-01-30T13:19:37;9.90;99.90
54930;DHT22;40833;53.238;6.576;2024-01-30T13:22:03;9.90;99.90
54930;DHT22;40833;53.238;6.576;2024-01-30T13:24:29;9.90;99.90
54930;DHT22;40833;53.238;6.576;2024-01-30T13:26:54;9.80;99.90
54930;DHT22;40833;53.238;6.576;2024-01-30T13:29:20;9.80;99.90
54930;DHT22;40833;53.238;6.576;2024-01-30T13:31:47;9.70;99.90
54930;DHT22;40833;53.238;6.576;2024-01-30T13:34:13;9.70;99.90
54930;DHT22;40833;53.238;6.576;2024-01-30T13:36:42;9.70;99.90
54930;DHT22;40833;53.238;6.576;2024-01-30T13:39:08;9.60;99.90
54930;DHT22;40833;53.238;6.576;2024-01-30T13:41:36;9.60;99.90
54930;DHT22;40833;53.238;6.576;2024-01-30T13:44:03;9.60;99.90
54930;DHT22;40833;53.238;6.576;2024-01-30T13:46:29;9.50;99.90
54930;DHT22;40833;53.238;6.576;2024-01-30T13:48:55;9.50;99.90
54930;DHT22;40833;53.238;6.576;2024-01-30T13:51:21;9.50;99.90
54930;DHT22;40833;53.238;6.576;2024-01-30T13:53:46;9.50;99.90
54930;DHT22;40833;53.238;6.576;2024-01-30T13:56:12;9.50;99.90
54930;DHT22;40833;53.238;6.576;2024-01-30T13:58:38;9.40;99.90
54930;DHT22;40833;53.238;6.576;2024-01-30T14:01:03;9.50;99.90
54930;DHT22;40833;53.238;6.576;2024-01-30T14:03:30;9.40;99.90
54930;DHT22;40833;53.238;6.576;2024-01-30T14:05:56;9.80;99.90
54930;DHT22;40833;53.238;6.576;2024-01-30T14:08:21;9.50;99.90
54930;DHT22;40833;53.238;6.576;2024-01-30T14:10:49;9.50;99.90
54930;DHT22;40833;53.238;6.576;2024-01-30T14:13:15;9.40;99.90
54930;DHT22;40833;53.238;6.576;2024-01-30T14:15:41;9.50;99.90
54930;DHT22;40833;53.238;6.576;2024-01-30T14:18:06;9.40;99.90
54930;DHT22;40833;53.238;6.576;2024-01-30T14:20:34;9.40;99.90
54930;DHT22;40833;53.238;6.576;2024-01-30T14:23:00;9.40;99.90
54930;DHT22;40833;53.238;6.576;2024-01-30T14:25:25;9.40;99.90
54930;DHT22;40833;53.238;6.576;2024-01-30T14:27:52;9.30;99.90
54930;DHT22;40833;53.238;6.576;2024-01-30T14:30:17;9.50;99.90
54930;DHT22;40833;53.238;6.576;2024-01-30T14:32:43;9.20;99.90
54930;DHT22;40833;53.238;6.576;2024-01-30T14:35:10;9.20;99.90
54930;DHT22;40833;53.238;6.576;2024-01-30T14:37:37;9.10;99.90
54930;DHT22;40833;53.238;6.576;2024-01-30T14:40:03;9.00;99.90
54930;DHT22;40833;53.238;6.576;2024-01-30T14:42:29;9.00;99.90
54930;DHT22;40833;53.238;6.576;2024-01-30T14:44:57;9.00;99.90
54930;DHT22;40833;53.238;6.576;2024-01-30T14:47:24;8.90;99.90
54930;DHT22;40833;53.238;6.576;2024-01-30T14:49:49;8.80;99.90
54930;DHT22;40833;53.238;6.576;2024-01-30T14:52:15;8.80;99.90
54930;DHT22;40833;53.238;6.576;2024-01-30T14:54:41;8.60;99.90
54930;DHT22;40833;53.238;6.576;2024-01-30T14:57:09;8.60;99.90
54930;DHT22;40833;53.238;6.576;2024-01-30T14:59:35;8.60;99.90
54930;DHT22;40833;53.238;6.576;2024-01-30T15:02:01;8.90;99.90
54930;DHT22;40833;53.238;6.576;2024-01-30T15:04:26;8.60;99.90
54930;DHT22;40833;53.238;6.576;2024-01-30T15:06:53;9.00;99.90
54930;DHT22;40833;53.238;6.576;2024-01-30T15:09:19;8.50;99.90
54930;DHT22;40833;53.238;6.576;2024-01-30T15:11:46;8.50;99.90
54930;DHT22;40833;53.238;6.576;2024-01-30T15:14:12;8.60;99.90
54930;DHT22;40833;53.238;6.576;2024-01-30T15:16:38;8.50;99.90
54930;DHT22;40833;53.238;6.576;2024-01-30T15:19:04;8.50;99.90
54930;DHT22;40833;53.238;6.576;2024-01-30T15:21:30;8.50;99.90
54930;DHT22;40833;53.238;6.576;2024-01-30T15:23:56;8.50;99.90
54930;DHT22;40833;53.238;6.576;2024-01-30T15:26:22;8.40;99.90
54930;DHT22;40833;53.238;6.576;2024-01-30T15:28:48;8.40;99.90
54930;DHT22;40833;53.238;6.576;2024-01-30T15:31:14;8.80;99.90
54930;DHT22;40833;53.238;6.576;2024-01-30T15:33:39;8.40;99.90
54930;DHT22;40833;53.238;6.576;2024-01-30T15:36:06;8.40;99.90
54930;DHT22;40833;53.238;6.576;2024-01-30T15:38:32;8.40;99.90
54930;DHT22;40833;53.238;6.576;2024-01-30T15:40:58;8.40;99.90
54930;DHT22;40833;53.238;6.576;2024-01-30T15:43:23;8.50;99.90
54930;DHT22;40833;53.238;6.576;2024-01-30T15:45:50;8.40;99.90
54930;DHT22;40833;53.238;6.576;2024-01-30T15:48:19;8.40;99.90
54930;DHT22;40833;53.238;6.576;2024-01-30T15:50:45;8.40;99.90
54930;DHT22;40833;53.238;6.576;2024-01-30T15:53:11;8.40;99.90
54930;DHT22;40833;53.238;6.576;2024-01-30T15:55:36;8.30;99.90